Pacific Seagull — 3FVM5 — position and weather

sailwx.info

Track history (hours):
 
Tides and Currents Weather Stations Pressure Air Temp Water Temp Dewpoint Dewpoint Depression Visibility Wind Speed Wind Dir Waves Ship Positions

Pacific Seagull

Last reported at 2017-Nov-20 00:30 UTC. Time now 2017-Nov-20 04:02 UTC.
Position N 57°56' E 010°33'.

Length 199 m; draft 9 m.

Type: Cargo ship. MMSI: 370485000.

Date/timePositionNaut miles runAvg speedWind from/ knotsBaromVisibWave heightAir tempDewpointWater temp
2017-Nov-20 00:30N 57°56' E 010°33'4 8.5
2017-Nov-20 00:00N 57°58' E 010°26'510.6
2017-Nov-19 23:30N 57°58' E 010°36'1012.5
2017-Nov-19 22:43N 57°58' E 010°17'313.2
2017-Nov-19 22:29N 57°58' E 010°11'613.5
2017-Nov-19 22:00N 57°58' E 009°59'713.5
2017-Nov-19 21:30N 57°58' E 009°46'713.4
2017-Nov-19 20:59N 57°57' E 009°33'45210.1
2017-Nov-18 00:13N 51°38' E 002°25'415.5
2017-Nov-17 23:57N 51°35' E 002°21'715.4
2017-Nov-17 23:30N 51°30' E 002°13'815.2
2017-Nov-17 23:00N 51°25' E 002°05'715.0
2017-Nov-17 22:31N 51°19' E 001°57'714.6
2017-Nov-17 22:01N 51°13' E 001°50'714.1
2017-Nov-17 21:31N 51°08' E 001°43'713.1
2017-Nov-17 21:00N 51°03' E 001°36'612.9
2017-Nov-17 20:30N 50°58' E 001°30'612.3
2017-Nov-17 20:00N 50°52' E 001°27'712.1
2017-Nov-17 19:27N 50°45' E 001°24'2612.3
2017-Nov-17 17:23N 50°29' E 000°53'1312.7
2017-Nov-17 16:20N 50°26' E 000°33'612.4
2017-Nov-17 15:52N 50°24' E 000°24'512.2
2017-Nov-17 15:30N 50°23' E 000°17'612.1
2017-Nov-17 15:00N 50°22' E 000°08'612.1
2017-Nov-17 14:30N 50°20' W 000°01'611.9
2017-Nov-17 13:59N 50°19' W 000°11'611.6
2017-Nov-17 13:29N 50°18' W 000°19'2911.4
2017-Nov-17 10:59N 50°10' W 001°03'612.8
2017-Nov-17 10:31N 50°09' W 001°12'713.5
2017-Nov-17 10:00N 50°07' W 001°22'714.3
2017-Nov-17 09:30N 50°05' W 001°33'714.9
2017-Nov-17 09:00N 50°02' W 001°44'815.5
2017-Nov-17 08:30N 49°60' W 001°55'816.0
2017-Nov-17 08:00N 49°57' W 002°07'2315.7
2017-Nov-17 06:32N 49°51' W 002°41'215.2
2017-Nov-17 06:23N 49°50' W 002°45'2014.6
2017-Nov-17 05:03N 49°42' W 003°12'114.5
2017-Nov-17 04:59N 49°41' W 003°13'8713.6
2017-Nov-16 22:35N 48°59' W 005°10'112.3
2017-Nov-16 22:28N 48°58' W 005°12'2011.8
2017-Nov-16 20:47N 48°46' W 005°36'412.0
2017-Nov-16 20:27N 48°43' W 005°39'711.6
2017-Nov-16 19:53N 48°37' W 005°44'510.1
2017-Nov-16 19:24N 48°33' W 005°47'11 9.9
2017-Nov-16 18:17N 48°23' W 005°55'410.1
2017-Nov-16 17:52N 48°20' W 005°58'410.2
2017-Nov-16 17:29N 48°16' W 006°01'710.7
2017-Nov-16 16:47N 48°11' W 006°09'311.2
2017-Nov-16 16:30N 48°09' W 006°13'611.4
2017-Nov-16 15:57N 48°05' W 006°20'511.7
2017-Nov-16 15:29N 48°02' W 006°26'913.8
2017-Nov-16 14:52N 47°56' W 006°37'614.3
2017-Nov-16 14:28N 47°53' W 006°44'714.4
2017-Nov-16 14:00N 47°49' W 006°52'714.5
2017-Nov-16 13:30N 47°44' W 006°60'814.4
2017-Nov-16 12:57N 47°40' W 007°09'  
Track history (hours):
 
Tides and Currents Weather Stations Pressure Air Temp Water Temp Dewpoint Dewpoint Depression Visibility Wind Speed Wind Dir Waves Ship Positions

Pacific Seagull

Last reported at 2017-Nov-20 00:30 UTC. Time now 2017-Nov-20 04:02 UTC.
Position N 57°56' E 010°33'.

Length 199 m; draft 9 m.

Type: Cargo ship. MMSI: 370485000.

Date/timePositionNaut miles runAvg speedWind from/ knotsBaromVisibWave heightAir tempDewpointWater temp
2017-Nov-20 00:30N 57°56' E 010°33'4 8.5
2017-Nov-20 00:00N 57°58' E 010°26'510.6
2017-Nov-19 23:30N 57°58' E 010°36'1012.5
2017-Nov-19 22:43N 57°58' E 010°17'313.2
2017-Nov-19 22:29N 57°58' E 010°11'613.5
2017-Nov-19 22:00N 57°58' E 009°59'713.5
2017-Nov-19 21:30N 57°58' E 009°46'713.4
2017-Nov-19 20:59N 57°57' E 009°33'45210.1
2017-Nov-18 00:13N 51°38' E 002°25'415.5
2017-Nov-17 23:57N 51°35' E 002°21'715.4
2017-Nov-17 23:30N 51°30' E 002°13'815.2
2017-Nov-17 23:00N 51°25' E 002°05'715.0
2017-Nov-17 22:31N 51°19' E 001°57'714.6
2017-Nov-17 22:01N 51°13' E 001°50'714.1
2017-Nov-17 21:31N 51°08' E 001°43'713.1
2017-Nov-17 21:00N 51°03' E 001°36'612.9
2017-Nov-17 20:30N 50°58' E 001°30'612.3
2017-Nov-17 20:00N 50°52' E 001°27'712.1
2017-Nov-17 19:27N 50°45' E 001°24'2612.3
2017-Nov-17 17:23N 50°29' E 000°53'1312.7
2017-Nov-17 16:20N 50°26' E 000°33'612.4
2017-Nov-17 15:52N 50°24' E 000°24'512.2
2017-Nov-17 15:30N 50°23' E 000°17'612.1
2017-Nov-17 15:00N 50°22' E 000°08'612.1
2017-Nov-17 14:30N 50°20' W 000°01'611.9
2017-Nov-17 13:59N 50°19' W 000°11'611.6
2017-Nov-17 13:29N 50°18' W 000°19'2911.4
2017-Nov-17 10:59N 50°10' W 001°03'612.8
2017-Nov-17 10:31N 50°09' W 001°12'713.5
2017-Nov-17 10:00N 50°07' W 001°22'714.3
2017-Nov-17 09:30N 50°05' W 001°33'714.9
2017-Nov-17 09:00N 50°02' W 001°44'815.5
2017-Nov-17 08:30N 49°60' W 001°55'816.0
2017-Nov-17 08:00N 49°57' W 002°07'2315.7
2017-Nov-17 06:32N 49°51' W 002°41'215.2
2017-Nov-17 06:23N 49°50' W 002°45'2014.6
2017-Nov-17 05:03N 49°42' W 003°12'114.5
2017-Nov-17 04:59N 49°41' W 003°13'8713.6
2017-Nov-16 22:35N 48°59' W 005°10'112.3
2017-Nov-16 22:28N 48°58' W 005°12'2011.8
2017-Nov-16 20:47N 48°46' W 005°36'412.0
2017-Nov-16 20:27N 48°43' W 005°39'711.6
2017-Nov-16 19:53N 48°37' W 005°44'510.1
2017-Nov-16 19:24N 48°33' W 005°47'11 9.9
2017-Nov-16 18:17N 48°23' W 005°55'410.1
2017-Nov-16 17:52N 48°20' W 005°58'410.2
2017-Nov-16 17:29N 48°16' W 006°01'710.7
2017-Nov-16 16:47N 48°11' W 006°09'311.2
2017-Nov-16 16:30N 48°09' W 006°13'611.4
2017-Nov-16 15:57N 48°05' W 006°20'511.7
2017-Nov-16 15:29N 48°02' W 006°26'913.8
2017-Nov-16 14:52N 47°56' W 006°37'614.3
2017-Nov-16 14:28N 47°53' W 006°44'714.4
2017-Nov-16 14:00N 47°49' W 006°52'714.5
2017-Nov-16 13:30N 47°44' W 006°60'814.4
2017-Nov-16 12:57N 47°40' W 007°09'  

Dump ship's entire track history